Terminal Aerodrome Forecast
Issued by NWS Cleveland, OH

Home | Current Version | Previous Version | Graphics & Text | Print | Product List | Glossary On
Versions: 1 2 3 4 5 6 7 8 9 10 11 12 13 14 15 16 17 18 19 20 21
000
FTUS41 KCLE 310500
TAFERI
TAF
KERI 310540Z 3106/0106 21012KT 6SM -SHRA SCT040 OVC080
     FM311000 21010KT P6SM VCSH SCT020 OVC040
     FM311400 21010KT P6SM VCSH OVC020
     FM312000 21012KT P6SM OVC030=

USA.gov is the U.S. government's official web portal to all federal, state and local government web resources and services.